sensor_id;sensor_type;location;lat;lon;timestamp;pressure;altitude;pressure_sealevel;temperature;humidity
61359;BME280;47228;46.762;23.598;2023-06-10T00:01:07;96867.67;;;16.83;88.20
61359;BME280;47228;46.762;23.598;2023-06-10T00:03:54;96865.16;;;16.84;88.08
61359;BME280;47228;46.762;23.598;2023-06-10T00:06:22;96864.95;;;16.85;87.86
61359;BME280;47228;46.762;23.598;2023-06-10T00:08:52;96866.98;;;16.85;87.87
61359;BME280;47228;46.762;23.598;2023-06-10T00:11:21;96864.30;;;16.84;87.86
61359;BME280;47228;46.762;23.598;2023-06-10T00:13:49;96865.64;;;16.84;87.92
61359;BME280;47228;46.762;23.598;2023-06-10T00:16:17;96867.84;;;16.84;88.17
61359;BME280;47228;46.762;23.598;2023-06-10T00:18:46;96870.33;;;16.86;88.03
61359;BME280;47228;46.762;23.598;2023-06-10T00:21:14;96865.46;;;16.88;87.63
61359;BME280;47228;46.762;23.598;2023-06-10T00:23:43;96864.34;;;16.90;87.64
61359;BME280;47228;46.762;23.598;2023-06-10T00:26:11;96865.80;;;16.89;87.58
61359;BME280;47228;46.762;23.598;2023-06-10T00:28:39;96869.86;;;16.88;87.62
61359;BME280;47228;46.762;23.598;2023-06-10T00:31:07;96866.86;;;16.88;87.57
61359;BME280;47228;46.762;23.598;2023-06-10T00:33:35;96870.70;;;16.91;87.49
61359;BME280;47228;46.762;23.598;2023-06-10T00:36:03;96871.20;;;16.94;87.85
61359;BME280;47228;46.762;23.598;2023-06-10T00:38:31;96874.04;;;16.94;87.45
61359;BME280;47228;46.762;23.598;2023-06-10T00:40:59;96872.99;;;16.91;87.30
61359;BME280;47228;46.762;23.598;2023-06-10T00:43:28;96869.63;;;16.86;87.21
61359;BME280;47228;46.762;23.598;2023-06-10T00:45:56;96870.88;;;16.82;87.41
61359;BME280;47228;46.762;23.598;2023-06-10T00:48:24;96870.00;;;16.79;87.77
61359;BME280;47228;46.762;23.598;2023-06-10T00:50:53;96870.48;;;16.81;88.20
61359;BME280;47228;46.762;23.598;2023-06-10T00:53:22;96874.81;;;16.84;88.36
61359;BME280;47228;46.762;23.598;2023-06-10T00:55:50;96876.45;;;16.86;88.32
61359;BME280;47228;46.762;23.598;2023-06-10T00:58:18;96874.10;;;16.88;88.62
61359;BME280;47228;46.762;23.598;2023-06-10T01:00:46;96874.23;;;16.91;88.59
61359;BME280;47228;46.762;23.598;2023-06-10T01:03:15;96872.84;;;16.92;88.26
61359;BME280;47228;46.762;23.598;2023-06-10T01:05:53;96871.23;;;16.91;87.88
61359;BME280;47228;46.762;23.598;2023-06-10T01:08:37;96873.40;;;16.88;87.67
61359;BME280;47228;46.762;23.598;2023-06-10T01:11:17;96877.64;;;16.87;88.09
61359;BME280;47228;46.762;23.598;2023-06-10T01:13:49;96876.02;;;16.86;88.11
61359;BME280;47228;46.762;23.598;2023-06-10T01:16:19;96871.92;;;16.80;87.74
61359;BME280;47228;46.762;23.598;2023-06-10T01:18:48;96872.61;;;16.71;87.54
61359;BME280;47228;46.762;23.598;2023-06-10T01:21:24;96871.75;;;16.63;87.89
61359;BME280;47228;46.762;23.598;2023-06-10T01:23:54;96866.20;;;16.56;88.14
61359;BME280;47228;46.762;23.598;2023-06-10T01:26:28;96871.25;;;16.50;88.76
61359;BME280;47228;46.762;23.598;2023-06-10T01:29:03;96873.99;;;16.46;88.60
61359;BME280;47228;46.762;23.598;2023-06-10T01:32:01;96879.53;;;16.41;89.11
61359;BME280;47228;46.762;23.598;2023-06-10T01:34:31;96876.60;;;16.39;89.46
61359;BME280;47228;46.762;23.598;2023-06-10T01:37:02;96874.35;;;16.38;89.64
61359;BME280;47228;46.762;23.598;2023-06-10T01:39:32;96878.80;;;16.38;89.66
61359;BME280;47228;46.762;23.598;2023-06-10T01:42:00;96879.25;;;16.40;89.79
61359;BME280;47228;46.762;23.598;2023-06-10T01:44:29;96874.25;;;16.40;89.83
61359;BME280;47228;46.762;23.598;2023-06-10T01:46:57;96872.39;;;16.40;89.82
61359;BME280;47228;46.762;23.598;2023-06-10T01:49:25;96873.95;;;16.42;90.11
61359;BME280;47228;46.762;23.598;2023-06-10T01:51:54;96870.76;;;16.43;90.10
61359;BME280;47228;46.762;23.598;2023-06-10T01:54:22;96867.13;;;16.44;90.02
61359;BME280;47228;46.762;23.598;2023-06-10T01:56:50;96866.52;;;16.48;90.28
61359;BME280;47228;46.762;23.598;2023-06-10T01:59:18;96863.77;;;16.52;89.96
61359;BME280;47228;46.762;23.598;2023-06-10T02:01:46;96861.19;;;16.52;89.50
61359;BME280;47228;46.762;23.598;2023-06-10T02:04:13;96859.09;;;16.51;89.30
61359;BME280;47228;46.762;23.598;2023-06-10T02:06:42;96856.83;;;16.49;89.47
61359;BME280;47228;46.762;23.598;2023-06-10T02:09:10;96856.34;;;16.49;89.59
61359;BME280;47228;46.762;23.598;2023-06-10T02:11:38;96861.79;;;16.48;89.28
61359;BME280;47228;46.762;23.598;2023-06-10T02:14:05;96860.70;;;16.46;89.38
61359;BME280;47228;46.762;23.598;2023-06-10T02:16:33;96862.26;;;16.46;89.60
61359;BME280;47228;46.762;23.598;2023-06-10T02:19:01;96859.31;;;16.46;89.86
61359;BME280;47228;46.762;23.598;2023-06-10T02:21:33;96859.39;;;16.47;89.83
61359;BME280;47228;46.762;23.598;2023-06-10T02:24:02;96858.23;;;16.45;89.69
61359;BME280;47228;46.762;23.598;2023-06-10T02:26:30;96866.74;;;16.45;89.78
61359;BME280;47228;46.762;23.598;2023-06-10T02:28:59;96871.44;;;16.42;90.02
61359;BME280;47228;46.762;23.598;2023-06-10T02:31:27;96876.10;;;16.42;90.22
61359;BME280;47228;46.762;23.598;2023-06-10T02:33:56;96877.15;;;16.45;90.80
61359;BME280;47228;46.762;23.598;2023-06-10T02:36:24;96874.65;;;16.46;90.82
61359;BME280;47228;46.762;23.598;2023-06-10T02:38:55;96879.45;;;16.50;90.80
61359;BME280;47228;46.762;23.598;2023-06-10T02:41:23;96880.27;;;16.53;90.70
61359;BME280;47228;46.762;23.598;2023-06-10T02:43:52;96877.56;;;16.56;90.49
61359;BME280;47228;46.762;23.598;2023-06-10T02:46:20;96876.82;;;16.55;89.80
61359;BME280;47228;46.762;23.598;2023-06-10T02:48:48;96879.47;;;16.52;89.64
61359;BME280;47228;46.762;23.598;2023-06-10T02:51:19;96875.92;;;16.52;90.15
61359;BME280;47228;46.762;23.598;2023-06-10T02:53:47;96878.45;;;16.54;90.38
61359;BME280;47228;46.762;23.598;2023-06-10T02:56:18;96880.30;;;16.56;90.17
61359;BME280;47228;46.762;23.598;2023-06-10T02:58:46;96881.55;;;16.57;89.96
61359;BME280;47228;46.762;23.598;2023-06-10T03:01:14;96885.34;;;16.56;89.65
61359;BME280;47228;46.762;23.598;2023-06-10T03:03:42;96882.84;;;16.52;89.60
61359;BME280;47228;46.762;23.598;2023-06-10T03:06:10;96881.14;;;16.48;89.66
61359;BME280;47228;46.762;23.598;2023-06-10T03:08:39;96882.20;;;16.46;90.08
61359;BME280;47228;46.762;23.598;2023-06-10T03:11:08;96886.59;;;16.46;90.57
61359;BME280;47228;46.762;23.598;2023-06-10T03:13:36;96885.11;;;16.48;90.85
61359;BME280;47228;46.762;23.598;2023-06-10T03:16:03;96883.17;;;16.53;90.72
61359;BME280;47228;46.762;23.598;2023-06-10T03:18:32;96882.45;;;16.56;90.43
61359;BME280;47228;46.762;23.598;2023-06-10T03:21:00;96886.27;;;16.58;90.22
61359;BME280;47228;46.762;23.598;2023-06-10T03:23:28;96885.47;;;16.58;90.17
61359;BME280;47228;46.762;23.598;2023-06-10T03:25:56;96888.00;;;16.59;90.08
61359;BME280;47228;46.762;23.598;2023-06-10T03:28:24;96892.04;;;16.55;89.52
61359;BME280;47228;46.762;23.598;2023-06-10T03:30:52;96892.44;;;16.52;89.86
61359;BME280;47228;46.762;23.598;2023-06-10T03:33:20;96890.96;;;16.48;89.48
61359;BME280;47228;46.762;23.598;2023-06-10T03:35:48;96890.63;;;16.41;89.15
61359;BME280;47228;46.762;23.598;2023-06-10T03:38:15;96891.09;;;16.35;89.35
61359;BME280;47228;46.762;23.598;2023-06-10T03:40:44;96887.05;;;16.33;89.64
61359;BME280;47228;46.762;23.598;2023-06-10T03:43:11;96885.98;;;16.33;89.56
61359;BME280;47228;46.762;23.598;2023-06-10T03:45:39;96887.02;;;16.34;89.80
61359;BME280;47228;46.762;23.598;2023-06-10T03:48:08;96882.79;;;16.35;89.56
61359;BME280;47228;46.762;23.598;2023-06-10T03:50:37;96883.16;;;16.35;89.40
61359;BME280;47228;46.762;23.598;2023-06-10T03:53:04;96884.15;;;16.37;89.95
61359;BME280;47228;46.762;23.598;2023-06-10T03:55:33;96885.91;;;16.41;90.03
61359;BME280;47228;46.762;23.598;2023-06-10T03:58:00;96887.27;;;16.45;90.03
61359;BME280;47228;46.762;23.598;2023-06-10T04:00:28;96884.45;;;16.47;89.51
61359;BME280;47228;46.762;23.598;2023-06-10T04:02:57;96881.10;;;16.50;89.33
61359;BME280;47228;46.762;23.598;2023-06-10T04:05:26;96876.70;;;16.54;89.37
61359;BME280;47228;46.762;23.598;2023-06-10T04:07:56;96872.73;;;16.55;88.78
61359;BME280;47228;46.762;23.598;2023-06-10T04:10:24;96869.81;;;16.55;88.75
61359;BME280;47228;46.762;23.598;2023-06-10T04:12:53;96871.50;;;16.59;88.72
61359;BME280;47228;46.762;23.598;2023-06-10T04:15:21;96874.12;;;16.65;89.07
61359;BME280;47228;46.762;23.598;2023-06-10T04:17:49;96875.58;;;16.73;89.13
61359;BME280;47228;46.762;23.598;2023-06-10T04:20:17;96879.65;;;16.79;88.77
61359;BME280;47228;46.762;23.598;2023-06-10T04:22:45;96880.58;;;16.81;87.93
61359;BME280;47228;46.762;23.598;2023-06-10T04:25:12;96880.19;;;16.86;87.96
61359;BME280;47228;46.762;23.598;2023-06-10T04:27:40;96878.77;;;16.88;87.11
61359;BME280;47228;46.762;23.598;2023-06-10T04:30:09;96881.49;;;16.89;86.90
61359;BME280;47228;46.762;23.598;2023-06-10T04:32:37;96881.48;;;16.93;87.39
61359;BME280;47228;46.762;23.598;2023-06-10T04:35:05;96884.27;;;16.98;87.66
61359;BME280;47228;46.762;23.598;2023-06-10T04:37:34;96888.20;;;17.05;87.52
61359;BME280;47228;46.762;23.598;2023-06-10T04:40:02;96891.30;;;17.09;86.54
61359;BME280;47228;46.762;23.598;2023-06-10T04:42:30;96888.46;;;17.13;86.86
61359;BME280;47228;46.762;23.598;2023-06-10T04:44:58;96885.12;;;17.17;86.52
61359;BME280;47228;46.762;23.598;2023-06-10T04:47:26;96881.82;;;17.21;86.59
61359;BME280;47228;46.762;23.598;2023-06-10T04:49:54;96884.95;;;17.24;86.79
61359;BME280;47228;46.762;23.598;2023-06-10T04:52:23;96885.95;;;17.27;87.08
61359;BME280;47228;46.762;23.598;2023-06-10T04:54:52;96882.32;;;17.31;87.13
61359;BME280;47228;46.762;23.598;2023-06-10T04:57:20;96884.48;;;17.35;87.05
61359;BME280;47228;46.762;23.598;2023-06-10T04:59:48;96885.09;;;17.38;86.86
61359;BME280;47228;46.762;23.598;2023-06-10T05:02:16;96884.67;;;17.39;86.26
61359;BME280;47228;46.762;23.598;2023-06-10T05:04:44;96886.09;;;17.41;86.25
61359;BME280;47228;46.762;23.598;2023-06-10T05:07:13;96884.61;;;17.46;86.50
61359;BME280;47228;46.762;23.598;2023-06-10T05:09:41;96883.46;;;17.51;86.69
61359;BME280;47228;46.762;23.598;2023-06-10T05:12:09;96890.20;;;17.56;86.56
61359;BME280;47228;46.762;23.598;2023-06-10T05:14:37;96889.62;;;17.59;86.03
61359;BME280;47228;46.762;23.598;2023-06-10T05:17:05;96893.77;;;17.62;86.29
61359;BME280;47228;46.762;23.598;2023-06-10T05:19:33;96894.71;;;17.68;86.62
61359;BME280;47228;46.762;23.598;2023-06-10T05:22:03;96896.36;;;17.74;86.50
61359;BME280;47228;46.762;23.598;2023-06-10T05:24:31;96895.14;;;17.79;86.46
61359;BME280;47228;46.762;23.598;2023-06-10T05:26:59;96897.30;;;17.83;86.67
61359;BME280;47228;46.762;23.598;2023-06-10T05:29:27;96896.31;;;17.90;86.71
61359;BME280;47228;46.762;23.598;2023-06-10T05:31:55;96897.27;;;17.98;86.52
61359;BME280;47228;46.762;23.598;2023-06-10T05:34:25;96900.35;;;18.04;86.30
61359;BME280;47228;46.762;23.598;2023-06-10T05:36:53;96901.05;;;18.11;86.43
61359;BME280;47228;46.762;23.598;2023-06-10T05:39:21;96900.73;;;18.14;85.86
61359;BME280;47228;46.762;23.598;2023-06-10T05:41:49;96899.73;;;18.15;85.45
61359;BME280;47228;46.762;23.598;2023-06-10T05:44:17;96902.23;;;18.13;85.40
61359;BME280;47228;46.762;23.598;2023-06-10T05:46:45;96907.02;;;18.15;85.41
61359;BME280;47228;46.762;23.598;2023-06-10T05:49:13;96907.25;;;18.14;85.41
61359;BME280;47228;46.762;23.598;2023-06-10T05:51:41;96907.34;;;18.13;85.41
61359;BME280;47228;46.762;23.598;2023-06-10T05:54:09;96907.88;;;18.14;85.87
61359;BME280;47228;46.762;23.598;2023-06-10T05:56:37;96904.45;;;18.16;85.78
61359;BME280;47228;46.762;23.598;2023-06-10T05:59:05;96906.39;;;18.19;85.87
61359;BME280;47228;46.762;23.598;2023-06-10T06:01:33;96908.77;;;18.23;85.81
61359;BME280;47228;46.762;23.598;2023-06-10T06:04:01;96910.44;;;18.27;85.78
61359;BME280;47228;46.762;23.598;2023-06-10T06:06:28;96912.18;;;18.31;85.97
61359;BME280;47228;46.762;23.598;2023-06-10T06:08:56;96913.44;;;18.35;85.92
61359;BME280;47228;46.762;23.598;2023-06-10T06:11:26;96911.50;;;18.40;85.61
61359;BME280;47228;46.762;23.598;2023-06-10T06:13:54;96909.48;;;18.43;85.63
61359;BME280;47228;46.762;23.598;2023-06-10T06:16:22;96909.16;;;18.47;85.38
61359;BME280;47228;46.762;23.598;2023-06-10T06:18:50;96908.95;;;18.50;85.08
61359;BME280;47228;46.762;23.598;2023-06-10T06:21:18;96909.34;;;18.51;84.77
61359;BME280;47228;46.762;23.598;2023-06-10T06:23:46;96907.08;;;18.53;85.06
61359;BME280;47228;46.762;23.598;2023-06-10T06:26:14;96907.25;;;18.58;85.35
61359;BME280;47228;46.762;23.598;2023-06-10T06:28:42;96904.67;;;18.64;85.38
61359;BME280;47228;46.762;23.598;2023-06-10T06:31:10;96904.41;;;18.70;85.13
61359;BME280;47228;46.762;23.598;2023-06-10T06:33:38;96904.77;;;18.75;84.81
61359;BME280;47228;46.762;23.598;2023-06-10T06:36:06;96903.86;;;18.80;84.63
61359;BME280;47228;46.762;23.598;2023-06-10T06:38:34;96902.59;;;18.86;84.57
61359;BME280;47228;46.762;23.598;2023-06-10T06:41:02;96899.00;;;18.91;84.27
61359;BME280;47228;46.762;23.598;2023-06-10T06:43:32;96896.84;;;18.93;84.02
61359;BME280;47228;46.762;23.598;2023-06-10T06:46:01;96896.73;;;18.95;84.20
61359;BME280;47228;46.762;23.598;2023-06-10T06:48:29;96895.17;;;18.99;84.22
61359;BME280;47228;46.762;23.598;2023-06-10T06:50:57;96895.77;;;19.06;84.28
61359;BME280;47228;46.762;23.598;2023-06-10T06:53:26;96894.02;;;19.14;84.38
61359;BME280;47228;46.762;23.598;2023-06-10T06:55:58;96895.73;;;19.20;84.06
61359;BME280;47228;46.762;23.598;2023-06-10T06:58:26;96896.32;;;19.27;84.00
61359;BME280;47228;46.762;23.598;2023-06-10T07:00:54;96893.66;;;19.33;83.74
61359;BME280;47228;46.762;23.598;2023-06-10T07:03:22;96893.98;;;19.38;83.58
61359;BME280;47228;46.762;23.598;2023-06-10T07:05:50;96893.66;;;19.44;83.64
61359;BME280;47228;46.762;23.598;2023-06-10T07:08:18;96886.73;;;19.52;83.45
61359;BME280;47228;46.762;23.598;2023-06-10T07:10:46;96886.08;;;19.58;83.68
61359;BME280;47228;46.762;23.598;2023-06-10T07:13:14;96884.94;;;19.64;83.34
61359;BME280;47228;46.762;23.598;2023-06-10T07:15:42;96887.00;;;19.73;83.57
61359;BME280;47228;46.762;23.598;2023-06-10T07:18:10;96884.38;;;19.84;83.18
61359;BME280;47228;46.762;23.598;2023-06-10T07:20:38;96883.53;;;19.95;82.63
61359;BME280;47228;46.762;23.598;2023-06-10T07:23:06;96883.34;;;20.08;82.61
61359;BME280;47228;46.762;23.598;2023-06-10T07:25:34;96882.80;;;20.20;82.39
61359;BME280;47228;46.762;23.598;2023-06-10T07:28:02;96878.20;;;20.31;81.54
61359;BME280;47228;46.762;23.598;2023-06-10T07:30:30;96876.63;;;20.42;80.61
61359;BME280;47228;46.762;23.598;2023-06-10T07:32:58;96874.23;;;20.53;79.73
61359;BME280;47228;46.762;23.598;2023-06-10T07:35:27;96874.48;;;20.64;79.18
61359;BME280;47228;46.762;23.598;2023-06-10T07:37:55;96868.57;;;20.76;78.74
61359;BME280;47228;46.762;23.598;2023-06-10T07:40:23;96872.28;;;20.88;78.34
61359;BME280;47228;46.762;23.598;2023-06-10T07:42:51;96866.96;;;20.98;78.24
61359;BME280;47228;46.762;23.598;2023-06-10T07:45:20;96871.63;;;21.09;77.10
61359;BME280;47228;46.762;23.598;2023-06-10T07:47:48;96872.45;;;21.19;76.34
61359;BME280;47228;46.762;23.598;2023-06-10T07:50:16;96872.77;;;21.30;74.96
61359;BME280;47228;46.762;23.598;2023-06-10T07:52:44;96871.73;;;21.38;73.04
61359;BME280;47228;46.762;23.598;2023-06-10T07:55:12;96864.98;;;21.47;73.52
61359;BME280;47228;46.762;23.598;2023-06-10T07:57:40;96865.90;;;21.58;72.73
61359;BME280;47228;46.762;23.598;2023-06-10T08:00:09;96869.88;;;21.70;71.84
61359;BME280;47228;46.762;23.598;2023-06-10T08:02:37;96871.45;;;21.81;70.57
61359;BME280;47228;46.762;23.598;2023-06-10T08:05:06;96868.89;;;21.84;68.92
61359;BME280;47228;46.762;23.598;2023-06-10T08:07:34;96864.63;;;21.88;69.06
61359;BME280;47228;46.762;23.598;2023-06-10T08:10:02;96865.29;;;21.95;69.46
61359;BME280;47228;46.762;23.598;2023-06-10T08:12:32;96867.03;;;22.02;69.01
61359;BME280;47228;46.762;23.598;2023-06-10T08:15:00;96865.45;;;22.03;69.16
61359;BME280;47228;46.762;23.598;2023-06-10T08:17:29;96864.54;;;22.11;68.91
61359;BME280;47228;46.762;23.598;2023-06-10T08:19:57;96863.48;;;22.22;68.05
61359;BME280;47228;46.762;23.598;2023-06-10T08:22:27;96856.42;;;22.34;67.32
61359;BME280;47228;46.762;23.598;2023-06-10T08:24:57;96851.06;;;22.36;65.54
61359;BME280;47228;46.762;23.598;2023-06-10T08:27:25;96853.94;;;22.39;66.65
61359;BME280;47228;46.762;23.598;2023-06-10T08:30:01;96849.65;;;22.51;67.23
61359;BME280;47228;46.762;23.598;2023-06-10T08:32:29;96847.34;;;22.69;66.44
61359;BME280;47228;46.762;23.598;2023-06-10T08:34:57;96843.61;;;22.82;64.96
61359;BME280;47228;46.762;23.598;2023-06-10T08:37:25;96843.52;;;22.96;64.91
61359;BME280;47228;46.762;23.598;2023-06-10T08:39:53;96836.88;;;23.13;64.57
61359;BME280;47228;46.762;23.598;2023-06-10T08:42:24;96837.11;;;23.30;65.32
61359;BME280;47228;46.762;23.598;2023-06-10T08:44:55;96836.35;;;23.46;64.62
61359;BME280;47228;46.762;23.598;2023-06-10T08:47:25;96835.55;;;23.60;62.50
61359;BME280;47228;46.762;23.598;2023-06-10T08:49:54;96834.72;;;23.69;60.36
61359;BME280;47228;46.762;23.598;2023-06-10T08:52:25;96831.84;;;23.69;59.01
61359;BME280;47228;46.762;23.598;2023-06-10T08:54:59;96833.21;;;23.71;58.73
61359;BME280;47228;46.762;23.598;2023-06-10T08:57:30;96832.87;;;23.77;59.94
61359;BME280;47228;46.762;23.598;2023-06-10T08:59:59;96835.88;;;23.90;59.08
61359;BME280;47228;46.762;23.598;2023-06-10T09:02:28;96836.11;;;24.02;58.14
61359;BME280;47228;46.762;23.598;2023-06-10T09:04:56;96836.11;;;24.10;58.07
61359;BME280;47228;46.762;23.598;2023-06-10T09:07:25;96832.94;;;24.24;56.90
61359;BME280;47228;46.762;23.598;2023-06-10T09:09:54;96832.77;;;24.39;57.15
61359;BME280;47228;46.762;23.598;2023-06-10T09:12:22;96830.55;;;24.44;56.15
61359;BME280;47228;46.762;23.598;2023-06-10T09:14:50;96826.94;;;24.43;56.29
61359;BME280;47228;46.762;23.598;2023-06-10T09:17:18;96832.02;;;24.38;56.20
61359;BME280;47228;46.762;23.598;2023-06-10T09:19:47;96826.00;;;24.38;54.70
61359;BME280;47228;46.762;23.598;2023-06-10T09:22:15;96824.13;;;24.44;54.82
61359;BME280;47228;46.762;23.598;2023-06-10T09:24:43;96821.45;;;24.50;52.95
61359;BME280;47228;46.762;23.598;2023-06-10T09:27:11;96822.83;;;24.42;53.42
61359;BME280;47228;46.762;23.598;2023-06-10T09:29:52;96819.58;;;24.37;53.55
61359;BME280;47228;46.762;23.598;2023-06-10T09:32:21;96820.58;;;24.45;53.93
61359;BME280;47228;46.762;23.598;2023-06-10T09:34:50;96816.52;;;24.63;53.45
61359;BME280;47228;46.762;23.598;2023-06-10T09:37:23;96815.99;;;24.74;52.49
61359;BME280;47228;46.762;23.598;2023-06-10T09:40:02;96817.88;;;24.77;52.45
61359;BME280;47228;46.762;23.598;2023-06-10T09:42:34;96819.89;;;24.84;52.29
61359;BME280;47228;46.762;23.598;2023-06-10T09:45:04;96816.35;;;24.94;52.20
61359;BME280;47228;46.762;23.598;2023-06-10T09:47:32;96817.31;;;24.95;52.46
61359;BME280;47228;46.762;23.598;2023-06-10T09:50:00;96818.43;;;24.88;52.46
61359;BME280;47228;46.762;23.598;2023-06-10T09:52:29;96815.44;;;24.76;51.50
61359;BME280;47228;46.762;23.598;2023-06-10T09:55:01;96812.68;;;24.56;50.67
61359;BME280;47228;46.762;23.598;2023-06-10T09:57:32;96817.19;;;24.32;51.49
61359;BME280;47228;46.762;23.598;2023-06-10T10:00:14;96813.95;;;24.08;51.51
61359;BME280;47228;46.762;23.598;2023-06-10T10:02:45;96810.70;;;23.90;52.27
61359;BME280;47228;46.762;23.598;2023-06-10T10:05:15;96809.39;;;23.83;52.05
61359;BME280;47228;46.762;23.598;2023-06-10T10:07:45;96811.67;;;23.64;51.99
61359;BME280;47228;46.762;23.598;2023-06-10T10:10:15;96810.88;;;23.52;52.67
61359;BME280;47228;46.762;23.598;2023-06-10T10:12:46;96807.96;;;23.59;53.18
61359;BME280;47228;46.762;23.598;2023-06-10T10:15:16;96810.05;;;23.71;53.11
61359;BME280;47228;46.762;23.598;2023-06-10T10:18:06;96808.89;;;23.88;52.68
61359;BME280;47228;46.762;23.598;2023-06-10T10:20:45;96807.92;;;23.96;51.23
61359;BME280;47228;46.762;23.598;2023-06-10T10:23:19;96809.41;;;23.86;51.06
61359;BME280;47228;46.762;23.598;2023-06-10T10:25:51;96806.07;;;23.73;51.72
61359;BME280;47228;46.762;23.598;2023-06-10T10:28:21;96804.90;;;23.77;51.66
61359;BME280;47228;46.762;23.598;2023-06-10T10:30:54;96802.90;;;23.85;52.00
61359;BME280;47228;46.762;23.598;2023-06-10T10:33:32;96802.27;;;23.99;53.27
61359;BME280;47228;46.762;23.598;2023-06-10T10:36:03;96805.55;;;24.01;52.34
61359;BME280;47228;46.762;23.598;2023-06-10T10:38:31;96806.40;;;23.83;52.33
61359;BME280;47228;46.762;23.598;2023-06-10T10:41:00;96805.21;;;23.61;52.55
61359;BME280;47228;46.762;23.598;2023-06-10T10:43:29;96797.79;;;23.39;53.77
61359;BME280;47228;46.762;23.598;2023-06-10T10:45:59;96798.02;;;23.23;54.47
61359;BME280;47228;46.762;23.598;2023-06-10T10:48:37;96797.15;;;23.06;55.22
61359;BME280;47228;46.762;23.598;2023-06-10T10:51:07;96792.67;;;22.92;56.14
61359;BME280;47228;46.762;23.598;2023-06-10T10:53:39;96787.06;;;22.85;57.04
61359;BME280;47228;46.762;23.598;2023-06-10T10:56:13;96786.98;;;22.77;57.27
61359;BME280;47228;46.762;23.598;2023-06-10T10:58:41;96790.22;;;22.67;57.27
61359;BME280;47228;46.762;23.598;2023-06-10T11:01:13;96792.42;;;22.54;57.53
61359;BME280;47228;46.762;23.598;2023-06-10T11:03:46;96789.16;;;22.43;57.96
61359;BME280;47228;46.762;23.598;2023-06-10T11:06:17;96787.90;;;22.34;58.15
61359;BME280;47228;46.762;23.598;2023-06-10T11:08:46;96786.49;;;22.24;58.24
61359;BME280;47228;46.762;23.598;2023-06-10T11:11:24;96788.73;;;22.14;58.51
61359;BME280;47228;46.762;23.598;2023-06-10T11:16:41;96792.00;;;21.80;62.13
61359;BME280;47228;46.762;23.598;2023-06-10T11:19:10;96795.66;;;21.58;63.25
61359;BME280;47228;46.762;23.598;2023-06-10T11:21:57;96801.66;;;21.37;64.21
61359;BME280;47228;46.762;23.598;2023-06-10T11:24:29;96803.07;;;21.13;65.33
61359;BME280;47228;46.762;23.598;2023-06-10T11:27:22;96805.73;;;20.94;66.42
61359;BME280;47228;46.762;23.598;2023-06-10T11:32:35;96810.62;;;20.62;67.91
61359;BME280;47228;46.762;23.598;2023-06-10T11:35:04;96811.19;;;20.52;69.11
61359;BME280;47228;46.762;23.598;2023-06-10T11:37:32;96810.03;;;20.39;69.58
61359;BME280;47228;46.762;23.598;2023-06-10T11:40:00;96805.33;;;20.26;70.78
61359;BME280;47228;46.762;23.598;2023-06-10T11:42:30;96800.00;;;20.13;71.65
61359;BME280;47228;46.762;23.598;2023-06-10T11:44:58;96798.51;;;20.01;72.41
61359;BME280;47228;46.762;23.598;2023-06-10T11:47:26;96796.17;;;19.91;73.15
61359;BME280;47228;46.762;23.598;2023-06-10T11:49:57;96789.07;;;19.81;73.77
61359;BME280;47228;46.762;23.598;2023-06-10T11:52:30;96787.36;;;19.75;74.24
61359;BME280;47228;46.762;23.598;2023-06-10T11:55:06;96788.30;;;19.72;74.69
61359;BME280;47228;46.762;23.598;2023-06-10T11:57:38;96788.24;;;19.71;75.43
61359;BME280;47228;46.762;23.598;2023-06-10T12:00:06;96783.02;;;19.71;75.70
61359;BME280;47228;46.762;23.598;2023-06-10T12:02:35;96778.98;;;19.70;75.50
61359;BME280;47228;46.762;23.598;2023-06-10T12:05:12;96773.20;;;19.66;74.79
61359;BME280;47228;46.762;23.598;2023-06-10T12:07:41;96766.04;;;19.64;74.94
61359;BME280;47228;46.762;23.598;2023-06-10T12:10:09;96766.95;;;19.63;75.16
61359;BME280;47228;46.762;23.598;2023-06-10T12:12:53;96768.14;;;19.64;75.21
61359;BME280;47228;46.762;23.598;2023-06-10T12:15:24;96762.00;;;19.64;74.58
61359;BME280;47228;46.762;23.598;2023-06-10T12:17:53;96764.70;;;19.61;73.94
61359;BME280;47228;46.762;23.598;2023-06-10T12:20:26;96769.17;;;19.60;74.54
61359;BME280;47228;46.762;23.598;2023-06-10T12:22:59;96773.05;;;19.61;73.75
61359;BME280;47228;46.762;23.598;2023-06-10T12:25:28;96772.67;;;19.62;73.21
61359;BME280;47228;46.762;23.598;2023-06-10T12:27:57;96764.38;;;19.62;73.01
61359;BME280;47228;46.762;23.598;2023-06-10T12:30:26;96764.33;;;19.63;72.52
61359;BME280;47228;46.762;23.598;2023-06-10T12:32:55;96756.17;;;19.65;71.40
61359;BME280;47228;46.762;23.598;2023-06-10T12:35:26;96749.98;;;19.63;71.08
61359;BME280;47228;46.762;23.598;2023-06-10T12:38:00;96746.86;;;19.62;71.53
61359;BME280;47228;46.762;23.598;2023-06-10T12:40:33;96740.56;;;19.63;71.97
61359;BME280;47228;46.762;23.598;2023-06-10T12:43:03;96743.93;;;19.67;72.50
61359;BME280;47228;46.762;23.598;2023-06-10T12:45:34;96742.31;;;19.69;72.62
61359;BME280;47228;46.762;23.598;2023-06-10T12:50:41;96730.43;;;19.70;74.12
61359;BME280;47228;46.762;23.598;2023-06-10T12:53:10;96728.64;;;19.74;74.34
61359;BME280;47228;46.762;23.598;2023-06-10T12:55:43;96725.64;;;19.82;74.89
61359;BME280;47228;46.762;23.598;2023-06-10T12:58:13;96719.13;;;19.87;74.57
61359;BME280;47228;46.762;23.598;2023-06-10T13:00:41;96714.59;;;19.91;74.65
61359;BME280;47228;46.762;23.598;2023-06-10T13:03:10;96713.75;;;19.99;74.06
61359;BME280;47228;46.762;23.598;2023-06-10T13:05:38;96710.33;;;20.12;73.01
61359;BME280;47228;46.762;23.598;2023-06-10T13:08:08;96708.41;;;20.27;71.56
61359;BME280;47228;46.762;23.598;2023-06-10T13:10:38;96699.38;;;20.50;72.05